LOT2WA EPWA-ELLX
Flight info
| Callsign | LOT2WA |
|---|---|
| Flight time | 1h 38m |
| Altitude | 36000 |
| Route | SOXER N869 TOMTI DCT OKG N869 ANELA Z715 COSJE T892 RIDSU Z114 DONAB Y180 BITBU Z110 BETEX |
| Aircraft | B738/M-SDE2E3FGHIRWXY/LB1 |
Departure
| Time | 2026-05-06 09:36 |
|---|---|
| Airport | Warsaw Chopin Airport (EPWA) |
Arrival
| Time | 2026-05-06 11:14 |
|---|---|
| Airport | Luxembourg-Findel International Airport (ELLX) |
| Time | Latitude | Longitude | Altitude | Speed | Heading |
|---|---|---|---|---|---|
| 2026-05-06 08:47 | 52.17481 | 20.96961 | 333 ft | 0 kts | 242° |
| 2026-05-06 08:56 | 52.17482 | 20.96961 | 338 ft | 0 kts | 242° |
| 2026-05-06 09:27 | 52.17484 | 20.96968 | 338 ft | 2 kts | 241° |
| 2026-05-06 09:28 | 52.17492 | 20.96991 | 332 ft | 2 kts | 242° |
| 2026-05-06 09:28 | 52.17499 | 20.97015 | 333 ft | 2 kts | 244° |
| 2026-05-06 09:28 | 52.17505 | 20.97040 | 335 ft | 2 kts | 272° |
| 2026-05-06 09:28 | 52.17501 | 20.97053 | 335 ft | 0 kts | 338° |
| 2026-05-06 09:30 | 52.17502 | 20.97053 | 335 ft | 0 kts | 337° |
| 2026-05-06 09:30 | 52.17528 | 20.97029 | 336 ft | 9 kts | 331° |
| 2026-05-06 09:30 | 52.17610 | 20.96952 | 336 ft | 16 kts | 315° |
| 2026-05-06 09:31 | 52.17587 | 20.96786 | 333 ft | 17 kts | 239° |
| 2026-05-06 09:31 | 52.17568 | 20.96734 | 335 ft | 1 kts | 239° |
| 2026-05-06 09:31 | 52.17564 | 20.96725 | 335 ft | 1 kts | 239° |
| 2026-05-06 09:31 | 52.17556 | 20.96703 | 336 ft | 3 kts | 239° |
| 2026-05-06 09:32 | 52.17540 | 20.96660 | 333 ft | 5 kts | 239° |
| 2026-05-06 09:32 | 52.17529 | 20.96629 | 337 ft | 0 kts | 239° |
| 2026-05-06 09:33 | 52.17529 | 20.96628 | 337 ft | 1 kts | 239° |
| 2026-05-06 09:33 | 52.17514 | 20.96592 | 337 ft | 7 kts | 230° |
| 2026-05-06 09:33 | 52.17475 | 20.96525 | 336 ft | 10 kts | 234° |
| 2026-05-06 09:33 | 52.17441 | 20.96414 | 338 ft | 12 kts | 256° |
| 2026-05-06 09:34 | 52.17494 | 20.96306 | 338 ft | 15 kts | 332° |
| 2026-05-06 09:34 | 52.17587 | 20.96224 | 335 ft | 15 kts | 332° |
| 2026-05-06 09:34 | 52.17678 | 20.96145 | 337 ft | 15 kts | 332° |
| 2026-05-06 09:34 | 52.17769 | 20.96065 | 337 ft | 16 kts | 328° |
| 2026-05-06 09:35 | 52.17844 | 20.95917 | 336 ft | 17 kts | 303° |
| 2026-05-06 09:35 | 52.17895 | 20.95738 | 335 ft | 17 kts | 257° |
| 2026-05-06 09:35 | 52.17814 | 20.95632 | 332 ft | 17 kts | 167° |
| 2026-05-06 09:35 | 52.17592 | 20.95820 | 336 ft | 69 kts | 152° |
| 2026-05-06 09:36 | 52.16979 | 20.96360 | 337 ft | 132 kts | 151° |
| 2026-05-06 09:36 | 52.16000 | 20.97182 | 472 ft | 172 kts | 155° |
| 2026-05-06 09:36 | 52.14981 | 20.98071 | 1430 ft | 165 kts | 154° |
| 2026-05-06 09:36 | 52.13984 | 20.98970 | 2365 ft | 167 kts | 154° |
| 2026-05-06 09:37 | 52.12878 | 20.99960 | 2781 ft | 193 kts | 154° |
| 2026-05-06 09:37 | 52.11606 | 21.00608 | 3145 ft | 211 kts | 184° |
| 2026-05-06 09:37 | 52.10187 | 20.99699 | 3611 ft | 222 kts | 213° |
| 2026-05-06 09:37 | 52.08885 | 20.98281 | 3845 ft | 247 kts | 213° |
| 2026-05-06 09:38 | 52.07399 | 20.96645 | 4745 ft | 248 kts | 213° |
| 2026-05-06 09:38 | 52.05968 | 20.95074 | 5632 ft | 250 kts | 213° |
| 2026-05-06 09:38 | 52.04530 | 20.93458 | 6432 ft | 254 kts | 220° |
| 2026-05-06 09:38 | 52.03444 | 20.91217 | 7190 ft | 258 kts | 242° |
| 2026-05-06 09:39 | 52.02831 | 20.88479 | 8065 ft | 261 kts | 251° |
| 2026-05-06 09:39 | 52.02341 | 20.85601 | 8793 ft | 268 kts | 252° |
| 2026-05-06 09:39 | 52.01873 | 20.82672 | 9666 ft | 268 kts | 253° |
| 2026-05-06 09:39 | 52.01404 | 20.79717 | 10273 ft | 278 kts | 253° |
| 2026-05-06 09:40 | 52.00894 | 20.76545 | 10441 ft | 303 kts | 253° |
| 2026-05-06 09:40 | 52.00342 | 20.73149 | 10624 ft | 325 kts | 253° |
| 2026-05-06 09:40 | 51.99142 | 20.65826 | 11726 ft | 341 kts | 252° |
| 2026-05-06 09:41 | 51.98534 | 20.62145 | 12451 ft | 344 kts | 252° |
| 2026-05-06 09:41 | 51.97909 | 20.58379 | 13169 ft | 347 kts | 252° |
| 2026-05-06 09:41 | 51.97276 | 20.54584 | 13834 ft | 351 kts | 252° |
| 2026-05-06 09:41 | 51.96634 | 20.50754 | 14487 ft | 353 kts | 252° |
| 2026-05-06 09:42 | 51.95986 | 20.46895 | 15131 ft | 356 kts | 252° |
| 2026-05-06 09:42 | 51.95328 | 20.42997 | 15749 ft | 360 kts | 252° |
| 2026-05-06 09:42 | 51.94663 | 20.39065 | 16388 ft | 363 kts | 252° |
| 2026-05-06 09:42 | 51.93993 | 20.35107 | 17003 ft | 366 kts | 252° |
| 2026-05-06 09:43 | 51.93313 | 20.31108 | 17599 ft | 370 kts | 252° |
| 2026-05-06 09:43 | 51.92625 | 20.27069 | 18187 ft | 373 kts | 252° |
| 2026-05-06 09:43 | 51.91943 | 20.23069 | 18655 ft | 375 kts | 252° |
| 2026-05-06 09:43 | 51.91243 | 20.18981 | 19099 ft | 378 kts | 253° |
| 2026-05-06 09:44 | 51.90537 | 20.14864 | 19563 ft | 380 kts | 253° |
| 2026-05-06 09:44 | 51.89827 | 20.10734 | 20006 ft | 383 kts | 253° |
| 2026-05-06 09:44 | 51.89109 | 20.06568 | 20472 ft | 385 kts | 253° |
| 2026-05-06 09:44 | 51.88387 | 20.02386 | 20922 ft | 387 kts | 253° |
| 2026-05-06 09:45 | 51.87660 | 19.98186 | 21337 ft | 389 kts | 253° |
| 2026-05-06 09:45 | 51.86926 | 19.93956 | 21755 ft | 392 kts | 253° |
| 2026-05-06 09:45 | 51.86185 | 19.89701 | 22164 ft | 394 kts | 253° |
| 2026-05-06 09:45 | 51.85440 | 19.85430 | 22580 ft | 396 kts | 253° |
| 2026-05-06 09:46 | 51.84700 | 19.81196 | 22977 ft | 398 kts | 253° |
| 2026-05-06 09:46 | 51.83943 | 19.76877 | 23338 ft | 400 kts | 253° |
| 2026-05-06 09:46 | 51.83180 | 19.72531 | 23701 ft | 402 kts | 252° |
| 2026-05-06 09:46 | 51.82414 | 19.68186 | 24053 ft | 403 kts | 252° |
| 2026-05-06 09:47 | 51.81646 | 19.63832 | 24408 ft | 404 kts | 252° |
| 2026-05-06 09:47 | 51.80874 | 19.59469 | 24742 ft | 405 kts | 252° |
| 2026-05-06 09:47 | 51.80096 | 19.55084 | 25059 ft | 406 kts | 252° |
| 2026-05-06 09:47 | 51.79314 | 19.50690 | 25370 ft | 408 kts | 252° |
| 2026-05-06 09:48 | 51.78542 | 19.46358 | 25686 ft | 409 kts | 252° |
| 2026-05-06 09:48 | 51.77751 | 19.41929 | 26007 ft | 410 kts | 252° |
| 2026-05-06 09:48 | 51.76957 | 19.37500 | 26315 ft | 411 kts | 251° |
| 2026-05-06 09:48 | 51.76160 | 19.33062 | 26622 ft | 412 kts | 251° |
| 2026-05-06 09:49 | 51.75361 | 19.28625 | 26897 ft | 413 kts | 251° |
| 2026-05-06 09:49 | 51.74554 | 19.24154 | 27171 ft | 415 kts | 251° |
| 2026-05-06 09:49 | 51.73747 | 19.19693 | 27455 ft | 416 kts | 251° |
| 2026-05-06 09:49 | 51.72914 | 19.15420 | 27780 ft | 415 kts | 250° |
| 2026-05-06 09:50 | 51.72062 | 19.10958 | 27990 ft | 417 kts | 251° |
| 2026-05-06 09:50 | 51.71261 | 19.06513 | 28206 ft | 419 kts | 251° |
| 2026-05-06 09:50 | 51.70461 | 19.01991 | 28471 ft | 420 kts | 251° |
| 2026-05-06 09:50 | 51.69657 | 18.97465 | 28749 ft | 420 kts | 251° |
| 2026-05-06 09:51 | 51.68849 | 18.92959 | 29112 ft | 418 kts | 251° |
| 2026-05-06 09:51 | 51.68034 | 18.88464 | 29541 ft | 415 kts | 250° |
| 2026-05-06 09:51 | 51.67221 | 18.84018 | 29932 ft | 413 kts | 250° |
| 2026-05-06 09:51 | 51.66409 | 18.79607 | 30216 ft | 412 kts | 250° |
| 2026-05-06 09:52 | 51.65597 | 18.75221 | 30443 ft | 412 kts | 250° |
| 2026-05-06 09:52 | 51.64776 | 18.70805 | 30701 ft | 411 kts | 250° |
| 2026-05-06 09:52 | 51.63957 | 18.66404 | 31009 ft | 410 kts | 250° |
| 2026-05-06 09:52 | 51.63138 | 18.62020 | 31304 ft | 408 kts | 250° |
| 2026-05-06 09:53 | 51.62320 | 18.57647 | 31580 ft | 407 kts | 250° |
| 2026-05-06 09:53 | 51.61502 | 18.53288 | 31863 ft | 406 kts | 250° |
| 2026-05-06 09:53 | 51.60685 | 18.48944 | 32162 ft | 405 kts | 250° |
| 2026-05-06 09:53 | 51.59869 | 18.44610 | 32429 ft | 404 kts | 250° |
| 2026-05-06 09:54 | 51.59053 | 18.40291 | 32700 ft | 403 kts | 249° |
| 2026-05-06 09:54 | 51.58237 | 18.35978 | 32995 ft | 402 kts | 249° |
| 2026-05-06 09:54 | 51.57434 | 18.31748 | 33269 ft | 401 kts | 249° |
| 2026-05-06 09:54 | 51.56620 | 18.27467 | 33557 ft | 400 kts | 249° |
| 2026-05-06 09:55 | 51.55807 | 18.23202 | 33832 ft | 398 kts | 249° |
| 2026-05-06 09:55 | 51.54995 | 18.18948 | 34016 ft | 399 kts | 249° |
| 2026-05-06 09:55 | 51.54178 | 18.14686 | 34153 ft | 400 kts | 249° |
| 2026-05-06 09:55 | 51.53358 | 18.10413 | 34307 ft | 401 kts | 249° |
| 2026-05-06 09:56 | 51.52535 | 18.06137 | 34497 ft | 400 kts | 250° |
| 2026-05-06 09:56 | 51.51713 | 18.01871 | 34686 ft | 401 kts | 250° |
| 2026-05-06 09:56 | 51.50897 | 17.97646 | 34819 ft | 402 kts | 250° |
| 2026-05-06 09:56 | 51.50068 | 17.93364 | 34945 ft | 403 kts | 250° |
| 2026-05-06 09:57 | 51.49232 | 17.89058 | 35095 ft | 404 kts | 250° |
| 2026-05-06 09:57 | 51.48398 | 17.84767 | 35266 ft | 404 kts | 250° |
| 2026-05-06 09:57 | 51.47560 | 17.80470 | 35423 ft | 404 kts | 250° |
| 2026-05-06 09:57 | 51.46718 | 17.76160 | 35562 ft | 405 kts | 250° |
| 2026-05-06 09:58 | 51.45876 | 17.71855 | 35722 ft | 404 kts | 250° |
| 2026-05-06 09:58 | 51.45031 | 17.67550 | 35748 ft | 406 kts | 250° |
| 2026-05-06 09:58 | 51.43342 | 17.58970 | 35758 ft | 406 kts | 250° |
| 2026-05-06 09:59 | 51.41638 | 17.50353 | 35757 ft | 406 kts | 250° |
| 2026-05-06 09:59 | 51.39927 | 17.41738 | 35757 ft | 405 kts | 250° |
| 2026-05-06 10:00 | 51.38213 | 17.33148 | 35759 ft | 405 kts | 250° |
| 2026-05-06 10:00 | 51.36506 | 17.24631 | 35754 ft | 405 kts | 249° |
| 2026-05-06 10:01 | 51.34783 | 17.16070 | 35758 ft | 404 kts | 249° |
| 2026-05-06 10:01 | 51.33055 | 17.07522 | 35764 ft | 404 kts | 249° |
| 2026-05-06 10:02 | 51.31325 | 16.98999 | 35765 ft | 403 kts | 249° |
| 2026-05-06 10:02 | 51.29586 | 16.90475 | 35771 ft | 403 kts | 249° |
| 2026-05-06 10:03 | 51.27855 | 16.82029 | 35777 ft | 403 kts | 249° |
| 2026-05-06 10:03 | 51.26103 | 16.73507 | 35770 ft | 404 kts | 249° |
| 2026-05-06 10:04 | 51.24341 | 16.64975 | 35774 ft | 405 kts | 249° |
| 2026-05-06 10:04 | 51.22569 | 16.56429 | 35767 ft | 406 kts | 249° |
| 2026-05-06 10:05 | 51.20800 | 16.47940 | 35767 ft | 406 kts | 249° |
| 2026-05-06 10:05 | 51.19014 | 16.39401 | 35762 ft | 406 kts | 249° |
| 2026-05-06 10:06 | 51.17223 | 16.30877 | 35757 ft | 406 kts | 249° |
| 2026-05-06 10:06 | 51.15425 | 16.22354 | 35762 ft | 406 kts | 249° |
| 2026-05-06 10:07 | 51.13621 | 16.13838 | 35759 ft | 405 kts | 249° |
| 2026-05-06 10:07 | 51.11825 | 16.05398 | 35760 ft | 405 kts | 249° |
| 2026-05-06 10:08 | 51.10014 | 15.96922 | 35770 ft | 405 kts | 249° |
| 2026-05-06 10:08 | 51.08196 | 15.88448 | 35765 ft | 405 kts | 249° |
| 2026-05-06 10:09 | 51.06384 | 15.80034 | 35773 ft | 404 kts | 249° |
| 2026-05-06 10:09 | 51.04556 | 15.71584 | 35773 ft | 405 kts | 249° |
| 2026-05-06 10:10 | 51.02720 | 15.63132 | 35773 ft | 405 kts | 249° |
| 2026-05-06 10:10 | 51.00879 | 15.54689 | 35773 ft | 404 kts | 249° |
| 2026-05-06 10:11 | 50.99033 | 15.46254 | 35775 ft | 404 kts | 249° |
| 2026-05-06 10:11 | 50.97181 | 15.37826 | 35774 ft | 405 kts | 249° |
| 2026-05-06 10:12 | 50.95328 | 15.29466 | 35773 ft | 404 kts | 247° |
| 2026-05-06 10:12 | 50.93051 | 15.21337 | 35784 ft | 403 kts | 244° |
| 2026-05-06 10:13 | 50.90671 | 15.13283 | 35777 ft | 404 kts | 244° |
| 2026-05-06 10:13 | 50.88306 | 15.05267 | 35775 ft | 405 kts | 244° |
| 2026-05-06 10:14 | 50.85931 | 14.97193 | 35780 ft | 405 kts | 244° |
| 2026-05-06 10:14 | 50.83550 | 14.89104 | 35780 ft | 406 kts | 244° |
| 2026-05-06 10:15 | 50.81161 | 14.81007 | 35779 ft | 406 kts | 244° |
| 2026-05-06 10:15 | 50.78766 | 14.72916 | 35782 ft | 406 kts | 244° |
| 2026-05-06 10:16 | 50.76384 | 14.64893 | 35781 ft | 407 kts | 244° |
| 2026-05-06 10:16 | 50.73975 | 14.56811 | 35782 ft | 406 kts | 244° |
| 2026-05-06 10:17 | 50.71565 | 14.48749 | 35778 ft | 406 kts | 244° |
| 2026-05-06 10:17 | 50.69147 | 14.40690 | 35779 ft | 406 kts | 243° |
| 2026-05-06 10:18 | 50.66744 | 14.32707 | 35776 ft | 406 kts | 243° |
| 2026-05-06 10:18 | 50.64320 | 14.24681 | 35777 ft | 405 kts | 243° |
| 2026-05-06 10:19 | 50.61895 | 14.16680 | 35783 ft | 404 kts | 243° |
| 2026-05-06 10:19 | 50.59469 | 14.08700 | 35786 ft | 404 kts | 243° |
| 2026-05-06 10:20 | 50.57037 | 14.00724 | 35784 ft | 404 kts | 243° |
| 2026-05-06 10:20 | 50.54620 | 13.92826 | 35791 ft | 403 kts | 243° |
| 2026-05-06 10:21 | 50.52183 | 13.84887 | 35786 ft | 403 kts | 243° |
| 2026-05-06 10:21 | 50.49739 | 13.76951 | 35790 ft | 403 kts | 243° |
| 2026-05-06 10:22 | 50.47288 | 13.69020 | 35785 ft | 404 kts | 243° |
| 2026-05-06 10:22 | 50.44830 | 13.61091 | 35795 ft | 404 kts | 243° |
| 2026-05-06 10:23 | 50.42383 | 13.53219 | 35788 ft | 404 kts | 243° |
| 2026-05-06 10:23 | 50.39913 | 13.45303 | 35790 ft | 404 kts | 243° |
| 2026-05-06 10:24 | 50.37435 | 13.37386 | 35791 ft | 405 kts | 243° |
| 2026-05-06 10:24 | 50.34952 | 13.29478 | 35793 ft | 405 kts | 243° |
| 2026-05-06 10:25 | 50.32480 | 13.21630 | 35812 ft | 404 kts | 243° |
| 2026-05-06 10:25 | 50.30096 | 13.14084 | 35819 ft | 404 kts | 243° |
| 2026-05-06 10:26 | 50.27701 | 13.06529 | 35825 ft | 404 kts | 242° |
| 2026-05-06 10:26 | 50.25202 | 12.98665 | 35829 ft | 404 kts | 242° |
| 2026-05-06 10:27 | 50.22710 | 12.90852 | 35829 ft | 405 kts | 242° |
| 2026-05-06 10:27 | 50.20191 | 12.82981 | 35831 ft | 404 kts | 242° |
| 2026-05-06 10:28 | 50.17672 | 12.75132 | 35823 ft | 404 kts | 242° |
| 2026-05-06 10:28 | 50.15155 | 12.67310 | 35820 ft | 404 kts | 242° |
| 2026-05-06 10:29 | 50.12650 | 12.59552 | 35814 ft | 403 kts | 242° |
| 2026-05-06 10:29 | 50.10121 | 12.51741 | 35807 ft | 404 kts | 242° |
| 2026-05-06 10:30 | 50.07709 | 12.44315 | 35792 ft | 404 kts | 242° |
| 2026-05-06 10:30 | 50.05371 | 12.36350 | 35795 ft | 405 kts | 247° |
| 2026-05-06 10:31 | 50.03349 | 12.28152 | 35790 ft | 406 kts | 247° |
| 2026-05-06 10:31 | 50.01338 | 12.20004 | 35792 ft | 407 kts | 247° |
| 2026-05-06 10:32 | 49.99285 | 12.11814 | 35794 ft | 407 kts | 247° |
| 2026-05-06 10:32 | 49.97212 | 12.03607 | 35790 ft | 408 kts | 246° |
| 2026-05-06 10:33 | 49.95148 | 11.95460 | 35795 ft | 409 kts | 246° |
| 2026-05-06 10:33 | 49.93078 | 11.87218 | 35792 ft | 410 kts | 247° |
| 2026-05-06 10:34 | 49.91032 | 11.78957 | 35794 ft | 411 kts | 247° |
| 2026-05-06 10:34 | 49.88975 | 11.70697 | 35798 ft | 411 kts | 247° |
| 2026-05-06 10:35 | 49.86957 | 11.62398 | 35790 ft | 412 kts | 248° |
| 2026-05-06 10:35 | 49.85026 | 11.54102 | 35794 ft | 412 kts | 248° |
| 2026-05-06 10:36 | 49.82870 | 11.45908 | 35794 ft | 411 kts | 245° |
| 2026-05-06 10:36 | 49.80650 | 11.37747 | 35793 ft | 411 kts | 246° |
| 2026-05-06 10:37 | 49.78605 | 11.29482 | 35795 ft | 411 kts | 247° |
| 2026-05-06 10:37 | 49.76913 | 11.21086 | 35796 ft | 414 kts | 257° |
| 2026-05-06 10:38 | 49.76458 | 11.12192 | 35803 ft | 416 kts | 264° |
| 2026-05-06 10:38 | 49.76174 | 11.03261 | 35801 ft | 416 kts | 263° |
| 2026-05-06 10:39 | 49.75846 | 10.94318 | 35803 ft | 416 kts | 263° |
| 2026-05-06 10:39 | 49.75499 | 10.85396 | 35796 ft | 416 kts | 263° |
| 2026-05-06 10:40 | 49.75159 | 10.76453 | 35797 ft | 416 kts | 263° |
| 2026-05-06 10:40 | 49.74836 | 10.67583 | 35800 ft | 416 kts | 263° |
| 2026-05-06 10:41 | 49.74502 | 10.58654 | 35795 ft | 417 kts | 263° |
| 2026-05-06 10:41 | 49.74151 | 10.49708 | 35789 ft | 417 kts | 263° |
| 2026-05-06 10:42 | 49.73786 | 10.40823 | 35794 ft | 417 kts | 263° |
| 2026-05-06 10:42 | 49.73413 | 10.31870 | 35793 ft | 418 kts | 263° |
| 2026-05-06 10:43 | 49.73034 | 10.22903 | 35797 ft | 418 kts | 262° |
| 2026-05-06 10:44 | 49.72454 | 10.09450 | 35786 ft | 418 kts | 262° |
| 2026-05-06 10:44 | 49.72062 | 10.00537 | 35789 ft | 419 kts | 262° |
| 2026-05-06 10:45 | 49.71807 | 9.91523 | 35786 ft | 422 kts | 267° |
| 2026-05-06 10:45 | 49.72043 | 9.82451 | 35781 ft | 423 kts | 269° |
| 2026-05-06 10:46 | 49.72334 | 9.73355 | 35782 ft | 424 kts | 268° |
| 2026-05-06 10:46 | 49.72588 | 9.64325 | 35782 ft | 424 kts | 268° |
| 2026-05-06 10:47 | 49.72816 | 9.55211 | 35732 ft | 425 kts | 268° |
| 2026-05-06 10:47 | 49.72925 | 9.50642 | 35377 ft | 427 kts | 268° |
| 2026-05-06 10:47 | 49.73032 | 9.46082 | 34991 ft | 421 kts | 267° |
| 2026-05-06 10:47 | 49.73138 | 9.41585 | 34591 ft | 417 kts | 267° |
| 2026-05-06 10:48 | 49.73240 | 9.37127 | 34180 ft | 412 kts | 267° |
| 2026-05-06 10:48 | 49.73339 | 9.32720 | 33785 ft | 408 kts | 267° |
| 2026-05-06 10:48 | 49.73435 | 9.28357 | 33317 ft | 404 kts | 266° |
| 2026-05-06 10:48 | 49.73528 | 9.24035 | 32893 ft | 401 kts | 266° |
| 2026-05-06 10:49 | 49.73617 | 9.19821 | 32513 ft | 397 kts | 266° |
| 2026-05-06 10:49 | 49.73705 | 9.15570 | 32079 ft | 393 kts | 266° |
| 2026-05-06 10:49 | 49.73790 | 9.11378 | 31720 ft | 389 kts | 266° |
| 2026-05-06 10:49 | 49.73874 | 9.07212 | 31314 ft | 386 kts | 266° |
| 2026-05-06 10:50 | 49.73955 | 9.03068 | 30925 ft | 384 kts | 266° |
| 2026-05-06 10:50 | 49.74035 | 8.98959 | 30539 ft | 381 kts | 266° |
| 2026-05-06 10:50 | 49.74113 | 8.94875 | 30165 ft | 379 kts | 266° |
| 2026-05-06 10:50 | 49.74188 | 8.90810 | 29775 ft | 377 kts | 266° |
| 2026-05-06 10:51 | 49.74261 | 8.86767 | 29324 ft | 375 kts | 266° |
| 2026-05-06 10:51 | 49.74333 | 8.82810 | 28939 ft | 372 kts | 266° |
| 2026-05-06 10:51 | 49.74403 | 8.78838 | 28536 ft | 369 kts | 266° |
| 2026-05-06 10:51 | 49.74471 | 8.74890 | 28159 ft | 365 kts | 266° |
| 2026-05-06 10:52 | 49.74537 | 8.70980 | 27763 ft | 363 kts | 266° |
| 2026-05-06 10:52 | 49.74602 | 8.67085 | 27388 ft | 360 kts | 267° |
| 2026-05-06 10:52 | 49.74665 | 8.63226 | 27003 ft | 358 kts | 267° |
| 2026-05-06 10:52 | 49.74727 | 8.59377 | 26627 ft | 356 kts | 267° |
| 2026-05-06 10:53 | 49.74787 | 8.55559 | 26250 ft | 355 kts | 267° |
| 2026-05-06 10:53 | 49.74844 | 8.51818 | 25889 ft | 353 kts | 267° |
| 2026-05-06 10:53 | 49.74955 | 8.48021 | 25507 ft | 354 kts | 272° |
| 2026-05-06 10:53 | 49.75412 | 8.44236 | 24876 ft | 363 kts | 280° |
| 2026-05-06 10:54 | 49.76029 | 8.40448 | 24435 ft | 364 kts | 281° |
| 2026-05-06 10:54 | 49.76668 | 8.36671 | 24057 ft | 363 kts | 281° |
| 2026-05-06 10:54 | 49.77303 | 8.32885 | 23670 ft | 363 kts | 281° |
| 2026-05-06 10:54 | 49.77927 | 8.29098 | 23287 ft | 362 kts | 281° |
| 2026-05-06 10:55 | 49.78541 | 8.25320 | 22850 ft | 361 kts | 281° |
| 2026-05-06 10:55 | 49.79144 | 8.21559 | 22449 ft | 360 kts | 281° |
| 2026-05-06 10:55 | 49.79735 | 8.17853 | 22067 ft | 358 kts | 281° |
| 2026-05-06 10:55 | 49.80327 | 8.14126 | 21692 ft | 356 kts | 281° |
| 2026-05-06 10:56 | 49.80913 | 8.10432 | 21323 ft | 354 kts | 281° |
| 2026-05-06 10:56 | 49.81498 | 8.06725 | 20968 ft | 353 kts | 281° |
| 2026-05-06 10:56 | 49.82081 | 8.03027 | 20590 ft | 353 kts | 281° |
| 2026-05-06 10:56 | 49.82669 | 7.99313 | 20029 ft | 357 kts | 281° |
| 2026-05-06 10:57 | 49.83262 | 7.95578 | 19626 ft | 357 kts | 281° |
| 2026-05-06 10:57 | 49.83854 | 7.91848 | 19262 ft | 357 kts | 281° |
| 2026-05-06 10:57 | 49.84439 | 7.88149 | 18839 ft | 359 kts | 281° |
| 2026-05-06 10:57 | 49.85040 | 7.84347 | 18480 ft | 357 kts | 281° |
| 2026-05-06 10:58 | 49.85621 | 7.80659 | 18113 ft | 356 kts | 281° |
| 2026-05-06 10:58 | 49.86203 | 7.76952 | 17696 ft | 355 kts | 281° |
| 2026-05-06 10:58 | 49.86790 | 7.73231 | 17279 ft | 354 kts | 282° |
| 2026-05-06 10:58 | 49.87371 | 7.69523 | 16877 ft | 352 kts | 281° |
| 2026-05-06 10:59 | 49.87940 | 7.65847 | 16504 ft | 350 kts | 281° |
| 2026-05-06 10:59 | 49.88504 | 7.62184 | 16140 ft | 348 kts | 281° |
| 2026-05-06 10:59 | 49.89062 | 7.58545 | 15785 ft | 346 kts | 281° |
| 2026-05-06 10:59 | 49.89616 | 7.54926 | 15422 ft | 344 kts | 281° |
| 2026-05-06 11:00 | 49.90166 | 7.51331 | 15078 ft | 343 kts | 281° |
| 2026-05-06 11:00 | 49.90706 | 7.47788 | 14710 ft | 342 kts | 281° |
| 2026-05-06 11:00 | 49.91249 | 7.44217 | 14362 ft | 340 kts | 281° |
| 2026-05-06 11:00 | 49.91791 | 7.40654 | 14013 ft | 338 kts | 281° |
| 2026-05-06 11:01 | 49.92328 | 7.37113 | 13661 ft | 337 kts | 281° |
| 2026-05-06 11:01 | 49.92862 | 7.33583 | 13272 ft | 336 kts | 281° |
| 2026-05-06 11:01 | 49.93371 | 7.30210 | 12909 ft | 334 kts | 281° |
| 2026-05-06 11:01 | 49.93899 | 7.26707 | 12549 ft | 332 kts | 281° |
| 2026-05-06 11:02 | 49.94425 | 7.23212 | 12196 ft | 330 kts | 281° |
| 2026-05-06 11:02 | 49.94943 | 7.19755 | 11832 ft | 329 kts | 281° |
| 2026-05-06 11:02 | 49.95460 | 7.16300 | 11487 ft | 327 kts | 281° |
| 2026-05-06 11:02 | 49.95964 | 7.12921 | 11140 ft | 326 kts | 281° |
| 2026-05-06 11:03 | 49.96475 | 7.09496 | 10785 ft | 324 kts | 281° |
| 2026-05-06 11:03 | 49.96981 | 7.06089 | 10447 ft | 322 kts | 281° |
| 2026-05-06 11:03 | 49.97485 | 7.02705 | 10121 ft | 320 kts | 281° |
| 2026-05-06 11:03 | 49.97978 | 6.99376 | 9981 ft | 311 kts | 281° |
| 2026-05-06 11:04 | 49.98457 | 6.96139 | 9846 ft | 303 kts | 281° |
| 2026-05-06 11:04 | 49.98850 | 6.92970 | 9714 ft | 294 kts | 270° |
| 2026-05-06 11:04 | 49.98520 | 6.89956 | 9715 ft | 277 kts | 246° |
| 2026-05-06 11:04 | 49.97562 | 6.87430 | 9126 ft | 279 kts | 226° |
| 2026-05-06 11:05 | 49.96245 | 6.85280 | 8764 ft | 273 kts | 225° |
| 2026-05-06 11:05 | 49.94953 | 6.83191 | 8488 ft | 266 kts | 225° |
| 2026-05-06 11:05 | 49.93670 | 6.81115 | 8201 ft | 265 kts | 225° |
| 2026-05-06 11:05 | 49.92390 | 6.79038 | 7905 ft | 266 kts | 225° |
| 2026-05-06 11:06 | 49.91113 | 6.76961 | 7619 ft | 266 kts | 225° |
| 2026-05-06 11:06 | 49.89847 | 6.74901 | 7334 ft | 265 kts | 225° |
| 2026-05-06 11:06 | 49.88582 | 6.72840 | 7070 ft | 264 kts | 225° |
| 2026-05-06 11:06 | 49.87316 | 6.70777 | 6799 ft | 264 kts | 225° |
| 2026-05-06 11:07 | 49.86059 | 6.68729 | 6526 ft | 264 kts | 225° |
| 2026-05-06 11:07 | 49.84791 | 6.66664 | 6244 ft | 264 kts | 225° |
| 2026-05-06 11:07 | 49.83517 | 6.64589 | 5945 ft | 265 kts | 225° |
| 2026-05-06 11:07 | 49.82250 | 6.62527 | 5655 ft | 264 kts | 225° |
| 2026-05-06 11:08 | 49.80978 | 6.60459 | 5369 ft | 265 kts | 225° |
| 2026-05-06 11:08 | 49.79713 | 6.58402 | 5128 ft | 262 kts | 225° |
| 2026-05-06 11:08 | 49.78490 | 6.56416 | 5114 ft | 250 kts | 225° |
| 2026-05-06 11:08 | 49.77312 | 6.54503 | 5041 ft | 243 kts | 225° |
| 2026-05-06 11:09 | 49.76175 | 6.52656 | 4978 ft | 236 kts | 225° |
| 2026-05-06 11:09 | 49.75069 | 6.50865 | 4890 ft | 225 kts | 225° |
| 2026-05-06 11:09 | 49.74014 | 6.49157 | 4689 ft | 216 kts | 225° |
| 2026-05-06 11:09 | 49.72995 | 6.47509 | 4478 ft | 208 kts | 225° |
| 2026-05-06 11:10 | 49.72007 | 6.45912 | 4274 ft | 204 kts | 225° |
| 2026-05-06 11:10 | 49.71125 | 6.44195 | 4030 ft | 206 kts | 239° |
| 2026-05-06 11:10 | 49.70436 | 6.42259 | 3816 ft | 205 kts | 239° |
| 2026-05-06 11:10 | 49.69749 | 6.40332 | 3616 ft | 204 kts | 240° |
| 2026-05-06 11:11 | 49.69075 | 6.38459 | 3369 ft | 192 kts | 239° |
| 2026-05-06 11:11 | 49.68448 | 6.36766 | 3136 ft | 178 kts | 238° |
| 2026-05-06 11:11 | 49.67847 | 6.35154 | 2889 ft | 170 kts | 238° |
| 2026-05-06 11:11 | 49.67269 | 6.33601 | 2677 ft | 163 kts | 238° |
| 2026-05-06 11:12 | 49.66720 | 6.32125 | 2508 ft | 154 kts | 238° |
| 2026-05-06 11:12 | 49.66201 | 6.30729 | 2292 ft | 147 kts | 238° |
| 2026-05-06 11:12 | 49.65687 | 6.29345 | 2090 ft | 149 kts | 238° |
| 2026-05-06 11:12 | 49.65172 | 6.27962 | 1877 ft | 149 kts | 240° |
| 2026-05-06 11:13 | 49.64654 | 6.26566 | 1692 ft | 150 kts | 243° |
| 2026-05-06 11:13 | 49.64135 | 6.25165 | 1480 ft | 150 kts | 243° |
| 2026-05-06 11:13 | 49.63617 | 6.23799 | 1318 ft | 150 kts | 245° |
| 2026-05-06 11:13 | 49.63109 | 6.22421 | 1227 ft | 145 kts | 243° |
| 2026-05-06 11:14 | 49.62650 | 6.21163 | 1233 ft | 120 kts | 238° |
| 2026-05-06 11:14 | 49.62291 | 6.20202 | 1220 ft | 86 kts | 239° |
| 2026-05-06 11:14 | 49.62107 | 6.19705 | 1194 ft | 20 kts | 243° |
| 2026-05-06 11:14 | 49.62123 | 6.19608 | 1189 ft | 7 kts | 320° |
| 2026-05-06 11:15 | 49.62148 | 6.19585 | 1189 ft | 0 kts | 330° |
| 2026-05-06 11:15 | 49.62151 | 6.19582 | 1189 ft | 1 kts | 331° |
| 2026-05-06 11:15 | 49.62165 | 6.19570 | 1187 ft | 5 kts | 330° |
| 2026-05-06 11:15 | 49.62174 | 6.19562 | 1186 ft | 0 kts | 330° |
| 2026-05-06 11:16 | 49.62189 | 6.19552 | 1184 ft | 6 kts | 338° |
| 2026-05-06 11:16 | 49.62227 | 6.19574 | 1185 ft | 6 kts | 45° |
| 2026-05-06 11:16 | 49.62253 | 6.19626 | 1188 ft | 6 kts | 59° |
| 2026-05-06 11:16 | 49.62274 | 6.19682 | 1191 ft | 6 kts | 60° |
| 2026-05-06 11:17 | 49.62294 | 6.19736 | 1194 ft | 6 kts | 60° |
| 2026-05-06 11:17 | 49.62315 | 6.19791 | 1197 ft | 6 kts | 60° |
| 2026-05-06 11:17 | 49.62344 | 6.19872 | 1202 ft | 11 kts | 60° |
| 2026-05-06 11:17 | 49.62390 | 6.19995 | 1209 ft | 15 kts | 60° |
| 2026-05-06 11:18 | 49.62449 | 6.20155 | 1219 ft | 19 kts | 60° |
| 2026-05-06 11:18 | 49.62527 | 6.20338 | 1229 ft | 21 kts | 51° |
| 2026-05-06 11:18 | 49.62620 | 6.20506 | 1234 ft | 21 kts | 48° |
| 2026-05-06 11:18 | 49.62724 | 6.20652 | 1242 ft | 21 kts | 36° |
| 2026-05-06 11:19 | 49.62820 | 6.20817 | 1236 ft | 22 kts | 64° |
| 2026-05-06 11:19 | 49.62896 | 6.21065 | 1232 ft | 27 kts | 64° |
| 2026-05-06 11:19 | 49.62974 | 6.21315 | 1230 ft | 25 kts | 64° |
| 2026-05-06 11:19 | 49.63047 | 6.21546 | 1225 ft | 24 kts | 67° |
| 2026-05-06 11:20 | 49.63098 | 6.21716 | 1224 ft | 14 kts | 64° |
| 2026-05-06 11:20 | 49.63122 | 6.21766 | 1225 ft | 5 kts | 30° |
| 2026-05-06 11:20 | 49.63157 | 6.21760 | 1227 ft | 5 kts | 333° |
| 2026-05-06 11:20 | 49.63186 | 6.21733 | 1227 ft | 5 kts | 331° |
| 2026-05-06 11:21 | 49.63218 | 6.21707 | 1229 ft | 5 kts | 331° |
| 2026-05-06 11:21 | 49.63252 | 6.21671 | 1229 ft | 7 kts | 334° |
| 2026-05-06 11:21 | 49.63293 | 6.21713 | 1229 ft | 9 kts | 58° |
| 2026-05-06 11:21 | 49.63310 | 6.21760 | 1229 ft | 1 kts | 58° |
| 2026-05-06 11:22 | 49.63316 | 6.21768 | 1229 ft | 2 kts | 38° |
| 2026-05-06 11:22 | 49.63335 | 6.21768 | 1229 ft | 4 kts | 343° |
| 2026-05-06 11:22 | 49.63363 | 6.21744 | 1229 ft | 2 kts | 330° |
| 2026-05-06 11:22 | 49.63368 | 6.21739 | 1229 ft | 0 kts | 330° |
| 2026-05-06 11:23 | 49.63368 | 6.21740 | 1229 ft | 0 kts | 330° |
| 2026-05-06 11:24 | 49.63368 | 6.21739 | 1229 ft | 0 kts | 330° |
| 2026-05-06 11:25 | 49.63368 | 6.21740 | 1229 ft | 0 kts | 330° |